createdAt,value
2023-05-19T00:00:37.449Z,14.07
2023-05-19T00:01:39.257Z,14.09
2023-05-19T00:02:41.574Z,14.08
2023-05-19T00:03:53.711Z,14.09
2023-05-19T00:04:55.541Z,14.16
2023-05-19T00:05:57.578Z,14.12
2023-05-19T00:06:59.287Z,14.09
2023-05-19T00:08:01.318Z,14.05
2023-05-19T00:09:09.952Z,14.02
2023-05-19T00:10:12.016Z,14.03
2023-05-19T00:11:13.929Z,14.08
2023-05-19T00:12:16.163Z,13.97
2023-05-19T00:13:17.945Z,14.03
2023-05-19T00:14:20.033Z,14.01
2023-05-19T00:15:22.237Z,13.97
2023-05-19T00:16:24.598Z,13.93
2023-05-19T00:17:26.983Z,13.91
2023-05-19T00:18:29.860Z,13.92
2023-05-19T00:19:32.444Z,13.90
2023-05-19T00:20:34.539Z,13.90
2023-05-19T00:21:38.148Z,13.90
2023-05-19T00:22:40.347Z,13.91
2023-05-19T00:23:42.218Z,13.88
2023-05-19T00:24:43.769Z,13.92
2023-05-19T00:25:45.671Z,13.92
2023-05-19T00:26:47.495Z,13.92
2023-05-19T00:27:49.086Z,13.92
2023-05-19T00:28:50.678Z,13.87
2023-05-19T00:29:52.602Z,13.89
2023-05-19T00:30:54.202Z,13.87
2023-05-19T00:31:56.658Z,13.86
2023-05-19T00:32:58.712Z,13.87
2023-05-19T00:34:00.356Z,13.88
2023-05-19T00:35:02.999Z,13.85
2023-05-19T00:36:04.763Z,13.77
2023-05-19T00:37:06.325Z,13.76
2023-05-19T00:38:07.917Z,13.81
2023-05-19T00:39:09.508Z,13.82
2023-05-19T00:40:11.508Z,13.76
2023-05-19T00:41:13.069Z,13.78
2023-05-19T00:42:14.629Z,13.82
2023-05-19T00:43:16.214Z,13.83
2023-05-19T00:44:17.825Z,13.82
2023-05-19T00:45:19.776Z,13.84
2023-05-19T00:46:23.038Z,13.87
2023-05-19T00:47:24.762Z,13.88
2023-05-19T00:48:26.378Z,13.87
2023-05-19T00:49:27.923Z,13.85
2023-05-19T00:50:30.243Z,13.83
2023-05-19T00:51:32.109Z,13.85
2023-05-19T00:52:33.751Z,13.81
2023-05-19T00:53:35.457Z,13.76
2023-05-19T00:54:37.107Z,13.76
2023-05-19T00:55:40.533Z,13.75
2023-05-19T00:56:42.069Z,13.77
2023-05-19T00:57:43.646Z,13.71
2023-05-19T00:58:45.400Z,13.80
2023-05-19T00:59:49.801Z,13.71
2023-05-19T01:00:51.398Z,13.78
2023-05-19T01:01:53.151Z,13.80
2023-05-19T01:02:56.140Z,13.81
2023-05-19T01:03:59.097Z,13.82
2023-05-19T01:05:01.202Z,13.81
2023-05-19T01:06:07.184Z,13.80
2023-05-19T01:07:08.778Z,13.82
2023-05-19T01:08:10.315Z,13.82
2023-05-19T01:09:12.041Z,13.82
2023-05-19T01:10:13.637Z,13.84
2023-05-19T01:11:15.268Z,13.83
2023-05-19T01:12:16.810Z,13.81
2023-05-19T01:13:18.378Z,13.87
2023-05-19T01:14:20.004Z,13.86
2023-05-19T01:15:21.644Z,13.82
2023-05-19T01:16:34.916Z,13.84
2023-05-19T01:17:49.629Z,13.91
2023-05-19T01:19:01.535Z,13.96
2023-05-19T01:20:19.998Z,13.92
2023-05-19T01:21:58.884Z,13.98
2023-05-19T01:23:15.155Z,14.03
2023-05-19T01:25:01.731Z,14.06
2023-05-19T01:26:12.759Z,14.03
2023-05-19T01:27:29.368Z,13.98
2023-05-19T01:28:55.694Z,13.98
2023-05-19T01:30:19.253Z,14.04
2023-05-19T01:31:23.830Z,13.93
2023-05-19T01:32:25.482Z,13.96
2023-05-19T01:33:27.436Z,13.94
2023-05-19T01:34:29.014Z,13.90
2023-05-19T01:35:31.219Z,13.94
2023-05-19T01:36:32.832Z,13.92
2023-05-19T01:37:34.423Z,13.94
2023-05-19T01:38:35.985Z,13.96
2023-05-19T01:39:37.533Z,13.98
2023-05-19T01:40:39.517Z,13.99
2023-05-19T01:41:41.664Z,13.95
2023-05-19T01:42:45.093Z,14.02
2023-05-19T01:43:46.663Z,13.98
2023-05-19T01:44:48.255Z,14.02
2023-05-19T01:45:49.936Z,14.00
2023-05-19T01:46:51.523Z,14.04
2023-05-19T01:47:58.507Z,13.98
2023-05-19T01:49:00.154Z,14.07
2023-05-19T01:50:01.692Z,13.94
2023-05-19T01:51:03.385Z,14.04
2023-05-19T01:52:05.195Z,14.02
2023-05-19T01:53:06.738Z,13.87
2023-05-19T01:54:08.315Z,13.99
2023-05-19T01:55:10.092Z,13.99
2023-05-19T01:56:11.661Z,13.95
2023-05-19T01:57:19.335Z,14.03
2023-05-19T01:58:38.215Z,13.97
2023-05-19T01:59:47.574Z,14.12
2023-05-19T02:01:11.199Z,14.18
2023-05-19T02:02:23.702Z,14.15
2023-05-19T02:03:59.114Z,14.21
2023-05-19T02:05:06.894Z,14.20
2023-05-19T02:06:32.771Z,14.15
2023-05-19T02:07:52.428Z,14.23
2023-05-19T02:09:03.778Z,14.20
2023-05-19T02:10:06.636Z,14.07
2023-05-19T02:11:32.969Z,14.06
2023-05-19T02:12:35.719Z,14.18
2023-05-19T02:13:37.947Z,14.12
2023-05-19T02:14:42.100Z,14.10
2023-05-19T02:15:43.810Z,14.13
2023-05-19T02:16:46.616Z,14.12
2023-05-19T02:17:50.574Z,14.10
2023-05-19T02:18:53.990Z,14.15
2023-05-19T02:19:55.933Z,14.12
2023-05-19T02:20:57.480Z,14.06
2023-05-19T02:21:59.417Z,13.99
2023-05-19T02:23:00.929Z,14.01
2023-05-19T02:24:02.542Z,14.04
2023-05-19T02:25:04.260Z,14.04
2023-05-19T02:26:05.960Z,13.91
2023-05-19T02:27:07.870Z,13.88
2023-05-19T02:28:09.416Z,13.92
2023-05-19T02:29:10.980Z,13.98
2023-05-19T02:30:12.660Z,13.98
2023-05-19T02:31:14.566Z,13.95
2023-05-19T02:32:16.182Z,13.95
2023-05-19T02:33:19.353Z,14.02
2023-05-19T02:34:21.125Z,14.07
2023-05-19T02:35:22.729Z,14.11
2023-05-19T02:36:26.850Z,14.07
2023-05-19T02:37:29.225Z,14.07
2023-05-19T02:38:30.973Z,14.11
2023-05-19T02:39:35.272Z,14.13
2023-05-19T02:40:36.877Z,14.15
2023-05-19T02:41:39.153Z,14.17
2023-05-19T02:42:40.701Z,14.19
2023-05-19T02:43:42.296Z,14.20
2023-05-19T02:44:43.974Z,14.21
2023-05-19T02:45:45.707Z,14.22
2023-05-19T02:46:47.618Z,14.23
2023-05-19T02:47:49.283Z,14.26
2023-05-19T02:48:51.181Z,14.27
2023-05-19T02:49:52.733Z,14.27
2023-05-19T02:50:54.326Z,14.29
2023-05-19T02:51:56.212Z,14.30
2023-05-19T02:52:57.824Z,14.33
2023-05-19T02:53:59.422Z,14.34
2023-05-19T02:55:01.024Z,14.35
2023-05-19T02:56:02.573Z,14.30
2023-05-19T02:57:04.629Z,14.38
2023-05-19T02:58:06.640Z,14.37
2023-05-19T02:59:08.165Z,14.39
2023-05-19T03:00:09.999Z,14.41
2023-05-19T03:01:12.118Z,14.44
2023-05-19T03:02:14.121Z,14.46
2023-05-19T03:03:15.969Z,14.44
2023-05-19T03:04:20.107Z,14.43
2023-05-19T03:05:21.704Z,14.49
2023-05-19T03:06:23.589Z,14.49
2023-05-19T03:07:25.351Z,14.47
2023-05-19T03:08:27.090Z,14.46
2023-05-19T03:09:28.676Z,14.40
2023-05-19T03:10:30.669Z,14.33
2023-05-19T03:11:32.653Z,14.28
2023-05-19T03:12:34.273Z,14.29
2023-05-19T03:13:35.856Z,14.23
2023-05-19T03:14:38.563Z,14.21
2023-05-19T03:15:40.112Z,14.13
2023-05-19T03:16:42.698Z,14.09
2023-05-19T03:17:44.437Z,14.09
2023-05-19T03:18:46.240Z,14.12
2023-05-19T03:19:47.843Z,14.14
2023-05-19T03:20:49.422Z,14.19
2023-05-19T03:21:51.566Z,14.08
2023-05-19T03:22:53.137Z,14.09
2023-05-19T03:23:54.822Z,14.14
2023-05-19T03:24:58.506Z,14.13
2023-05-19T03:26:00.152Z,14.19
2023-05-19T03:27:02.811Z,14.22
2023-05-19T03:28:04.475Z,14.20
2023-05-19T03:29:06.092Z,14.17
2023-05-19T03:30:08.183Z,14.17
2023-05-19T03:31:09.748Z,14.17
2023-05-19T03:32:11.290Z,14.13
2023-05-19T03:33:13.113Z,14.08
2023-05-19T03:34:14.831Z,14.08
2023-05-19T03:35:16.446Z,14.02
2023-05-19T03:36:18.475Z,14.02
2023-05-19T03:37:20.040Z,13.95
2023-05-19T03:38:21.581Z,13.87
2023-05-19T03:39:23.124Z,13.84
2023-05-19T03:40:24.763Z,13.80
2023-05-19T03:41:26.681Z,13.81
2023-05-19T03:42:28.254Z,13.88
2023-05-19T03:43:29.855Z,13.88
2023-05-19T03:44:31.417Z,13.92
2023-05-19T03:45:33.025Z,13.96
2023-05-19T03:46:34.916Z,14.03
2023-05-19T03:47:36.467Z,14.05
2023-05-19T03:48:38.061Z,14.10
2023-05-19T03:49:39.620Z,14.11
2023-05-19T03:50:41.207Z,14.17
2023-05-19T03:51:43.468Z,14.21
2023-05-19T03:52:46.490Z,14.10
2023-05-19T03:53:48.802Z,14.15
2023-05-19T03:54:51.278Z,14.21
2023-05-19T03:55:53.220Z,14.21
2023-05-19T03:56:54.926Z,14.12
2023-05-19T03:57:57.035Z,14.23
2023-05-19T03:58:59.423Z,14.19
2023-05-19T04:00:00.976Z,14.27
2023-05-19T04:01:02.822Z,14.30
2023-05-19T04:02:04.524Z,14.34
2023-05-19T04:03:06.256Z,14.30
2023-05-19T04:04:07.963Z,14.33
2023-05-19T04:05:10.312Z,14.39
2023-05-19T04:06:13.293Z,14.44
2023-05-19T04:07:14.844Z,14.48
2023-05-19T04:08:16.379Z,14.51
2023-05-19T04:09:19.414Z,14.55
2023-05-19T04:10:21.004Z,14.46
2023-05-19T04:11:22.872Z,14.55
2023-05-19T04:12:24.392Z,14.55
2023-05-19T04:13:26.072Z,14.62
2023-05-19T04:14:27.726Z,14.64
2023-05-19T04:15:29.310Z,14.60
2023-05-19T04:16:31.289Z,14.59
2023-05-19T04:17:33.015Z,14.61
2023-05-19T04:18:34.630Z,14.64
2023-05-19T04:19:36.179Z,14.65
2023-05-19T04:20:37.955Z,14.68
2023-05-19T04:21:39.484Z,14.71
2023-05-19T04:22:41.442Z,14.74
2023-05-19T04:23:43.412Z,14.77
2023-05-19T04:24:46.049Z,14.76
2023-05-19T04:25:48.794Z,14.80
2023-05-19T04:26:50.825Z,14.79
2023-05-19T04:27:52.981Z,14.85
2023-05-19T04:28:56.624Z,14.86
2023-05-19T04:29:58.454Z,14.89
2023-05-19T04:31:00.297Z,14.87
2023-05-19T04:32:01.961Z,14.87
2023-05-19T04:33:04.873Z,14.89
2023-05-19T04:34:08.045Z,14.91
2023-05-19T04:35:09.577Z,15.28
2023-05-19T04:36:11.787Z,15.18
2023-05-19T04:37:14.160Z,15.07
2023-05-19T04:38:18.927Z,15.00
2023-05-19T04:39:21.555Z,14.93
2023-05-19T04:40:24.174Z,14.93
2023-05-19T04:41:25.756Z,14.95
2023-05-19T04:42:33.075Z,14.95
2023-05-19T04:43:34.661Z,15.00
2023-05-19T04:44:38.066Z,15.00
2023-05-19T04:45:42.861Z,15.02
2023-05-19T04:46:45.273Z,15.03
2023-05-19T04:47:49.697Z,15.03
2023-05-19T04:48:51.586Z,15.08
2023-05-19T04:49:55.778Z,15.09
2023-05-19T04:50:58.152Z,15.10
2023-05-19T04:51:59.751Z,15.09
2023-05-19T04:53:01.324Z,15.08
2023-05-19T04:54:04.001Z,15.08
2023-05-19T04:55:06.037Z,15.12
2023-05-19T04:56:08.103Z,15.11
2023-05-19T04:57:13.085Z,15.07
2023-05-19T04:58:14.663Z,15.05
2023-05-19T04:59:16.523Z,15.06
2023-05-19T05:00:19.207Z,15.08
2023-05-19T05:01:25.932Z,15.08
2023-05-19T05:02:28.174Z,15.08
2023-05-19T05:03:31.037Z,15.07
2023-05-19T05:04:32.743Z,15.42
2023-05-19T05:05:35.073Z,15.30
2023-05-19T05:06:38.441Z,15.14
2023-05-19T05:07:40.032Z,15.13
2023-05-19T05:08:42.727Z,15.20
2023-05-19T05:09:44.317Z,15.22
2023-05-19T05:10:45.962Z,15.23
2023-05-19T05:11:47.654Z,15.24
2023-05-19T05:12:49.633Z,15.27
2023-05-19T05:13:51.483Z,15.28
2023-05-19T05:14:53.533Z,15.22
2023-05-19T05:15:56.099Z,15.30
2023-05-19T05:16:57.886Z,15.31
2023-05-19T05:18:00.376Z,15.33
2023-05-19T05:19:02.411Z,15.35
2023-05-19T05:20:06.601Z,15.31
2023-05-19T05:21:08.737Z,15.26
2023-05-19T05:22:10.508Z,15.30
2023-05-19T05:23:14.614Z,15.30
2023-05-19T05:24:16.656Z,15.32
2023-05-19T05:25:18.741Z,15.27
2023-05-19T05:26:21.432Z,15.26
2023-05-19T05:27:22.978Z,15.30
2023-05-19T05:28:24.541Z,15.33
2023-05-19T05:29:26.263Z,15.36
2023-05-19T05:30:27.819Z,15.40
2023-05-19T05:31:29.409Z,15.39
2023-05-19T05:32:31.012Z,15.42
2023-05-19T05:33:32.660Z,15.45
2023-05-19T05:34:34.548Z,15.51
2023-05-19T05:35:36.134Z,15.56
2023-05-19T05:36:37.673Z,15.58
2023-05-19T05:37:39.276Z,15.59
2023-05-19T05:38:40.841Z,15.58
2023-05-19T05:39:42.389Z,15.40
2023-05-19T05:40:44.274Z,15.54
2023-05-19T05:41:45.849Z,15.50
2023-05-19T05:42:47.402Z,15.48
2023-05-19T05:43:48.981Z,15.52
2023-05-19T05:44:50.573Z,15.54
2023-05-19T05:45:52.176Z,15.47
2023-05-19T05:46:53.978Z,15.53
2023-05-19T05:47:55.983Z,15.55
2023-05-19T05:48:57.862Z,15.60
2023-05-19T05:50:00.021Z,15.66
2023-05-19T05:51:01.735Z,15.40
2023-05-19T05:52:06.089Z,15.41
2023-05-19T05:53:08.187Z,15.41
2023-05-19T05:54:09.719Z,15.45
2023-05-19T05:55:12.300Z,15.51
2023-05-19T05:56:14.343Z,15.60
2023-05-19T05:57:16.108Z,15.65
2023-05-19T05:58:17.671Z,15.62
2023-05-19T05:59:20.301Z,15.67
2023-05-19T06:00:22.768Z,15.70
2023-05-19T06:01:24.344Z,15.76
2023-05-19T06:02:26.228Z,15.65
2023-05-19T06:03:28.006Z,15.50
2023-05-19T06:04:29.581Z,15.46
2023-05-19T06:05:31.171Z,15.26
2023-05-19T06:06:32.910Z,15.31
2023-05-19T06:07:34.460Z,15.35
2023-05-19T06:08:36.383Z,15.35
2023-05-19T06:09:37.939Z,15.43
2023-05-19T06:10:41.708Z,15.36
2023-05-19T06:11:43.343Z,15.25
2023-05-19T06:12:44.968Z,15.28
2023-05-19T06:13:46.529Z,15.50
2023-05-19T06:14:48.411Z,15.56
2023-05-19T06:15:51.054Z,15.52
2023-05-19T06:16:52.991Z,15.64
2023-05-19T06:17:54.831Z,15.71
2023-05-19T06:18:56.535Z,15.71
2023-05-19T06:19:58.445Z,15.70
2023-05-19T06:21:00.057Z,15.68
2023-05-19T06:22:01.627Z,15.60
2023-05-19T06:23:03.184Z,15.67
2023-05-19T06:24:04.879Z,15.66
2023-05-19T06:25:07.417Z,15.73
2023-05-19T06:26:08.992Z,15.75
2023-05-19T06:27:10.698Z,15.69
2023-05-19T06:28:12.302Z,15.63
2023-05-19T06:29:14.021Z,15.62
2023-05-19T06:30:15.891Z,15.67
2023-05-19T06:31:17.527Z,15.77
2023-05-19T06:32:19.114Z,15.80
2023-05-19T06:33:20.761Z,15.87
2023-05-19T06:34:22.347Z,15.94
2023-05-19T06:35:23.911Z,15.97
2023-05-19T06:36:25.535Z,15.90
2023-05-19T06:37:27.078Z,15.79
2023-05-19T06:38:28.647Z,15.77
2023-05-19T06:39:30.553Z,15.91
2023-05-19T06:40:32.336Z,15.96
2023-05-19T06:41:34.613Z,15.93
2023-05-19T06:42:36.172Z,15.97
2023-05-19T06:43:37.784Z,16.02
2023-05-19T06:44:39.320Z,16.10
2023-05-19T06:45:41.108Z,16.13
2023-05-19T06:46:44.250Z,16.23
2023-05-19T06:47:45.967Z,16.22
2023-05-19T06:48:47.519Z,16.24
2023-05-19T06:49:55.366Z,16.26
2023-05-19T06:50:57.230Z,16.28
2023-05-19T06:51:58.766Z,15.97
2023-05-19T06:53:00.504Z,16.12
2023-05-19T06:54:02.460Z,16.19
2023-05-19T06:55:04.313Z,16.18
2023-05-19T06:56:06.365Z,16.24
2023-05-19T06:57:07.966Z,16.38
2023-05-19T06:58:09.584Z,16.40
2023-05-19T06:59:11.295Z,16.38
2023-05-19T07:00:15.280Z,16.32
2023-05-19T07:01:19.472Z,16.44
2023-05-19T07:02:21.090Z,16.46
2023-05-19T07:03:22.778Z,16.57
2023-05-19T07:04:24.493Z,16.47
2023-05-19T07:05:26.073Z,16.27
2023-05-19T07:06:27.684Z,16.36
2023-05-19T07:07:29.245Z,16.29
2023-05-19T07:08:30.953Z,16.41
2023-05-19T07:09:32.543Z,16.59
2023-05-19T07:10:34.370Z,16.63
2023-05-19T07:11:36.233Z,16.67
2023-05-19T07:12:37.757Z,16.73
2023-05-19T07:13:39.302Z,16.27
2023-05-19T07:14:41.588Z,16.40
2023-05-19T07:15:43.331Z,16.30
2023-05-19T07:16:45.080Z,16.42
2023-05-19T07:17:46.759Z,16.38
2023-05-19T07:18:48.355Z,16.42
2023-05-19T07:19:50.199Z,16.44
2023-05-19T07:20:53.175Z,16.42
2023-05-19T07:21:55.490Z,16.45
2023-05-19T07:22:57.086Z,16.18
2023-05-19T07:23:58.622Z,16.29
2023-05-19T07:25:00.471Z,16.45
2023-05-19T07:26:02.001Z,16.53
2023-05-19T07:27:03.652Z,16.18
2023-05-19T07:28:05.433Z,16.46
2023-05-19T07:29:06.973Z,16.60
2023-05-19T07:30:09.177Z,16.52
2023-05-19T07:31:10.699Z,16.50
2023-05-19T07:32:12.309Z,16.60
2023-05-19T07:33:13.946Z,16.59
2023-05-19T07:34:15.561Z,16.68
2023-05-19T07:35:17.167Z,16.76
2023-05-19T07:36:18.733Z,16.88
2023-05-19T07:37:20.324Z,16.80
2023-05-19T07:38:21.874Z,16.93
2023-05-19T07:39:26.331Z,16.76
2023-05-19T07:40:27.911Z,16.90
2023-05-19T07:41:29.592Z,16.96
2023-05-19T07:42:31.166Z,17.01
2023-05-19T07:43:32.761Z,17.18
2023-05-19T07:44:34.772Z,16.35
2023-05-19T07:45:36.412Z,16.92
2023-05-19T07:46:38.262Z,17.32
2023-05-19T07:47:39.911Z,17.62
2023-05-19T07:48:41.496Z,17.76
2023-05-19T07:49:43.035Z,17.38
2023-05-19T07:50:44.705Z,17.73
2023-05-19T07:51:46.367Z,18.05
2023-05-19T07:52:47.943Z,18.33
2023-05-19T07:53:49.498Z,18.60
2023-05-19T07:54:51.284Z,18.44
2023-05-19T07:55:52.882Z,18.58
2023-05-19T07:56:54.461Z,18.59
2023-05-19T07:57:56.283Z,18.56
2023-05-19T07:58:57.837Z,18.72
2023-05-19T07:59:59.467Z,18.80
2023-05-19T08:01:01.158Z,18.77
2023-05-19T08:02:02.750Z,18.80
2023-05-19T08:03:04.523Z,18.84
2023-05-19T08:04:06.324Z,18.75
2023-05-19T08:05:09.597Z,18.69
2023-05-19T08:06:11.268Z,18.68
2023-05-19T08:07:12.817Z,18.63
2023-05-19T08:08:16.927Z,17.92
2023-05-19T08:09:18.873Z,18.26
2023-05-19T08:10:20.832Z,17.73
2023-05-19T08:11:22.495Z,18.05
2023-05-19T08:12:24.067Z,18.03
2023-05-19T08:13:25.662Z,18.31
2023-05-19T08:14:27.471Z,18.55
2023-05-19T08:15:29.146Z,18.41
2023-05-19T08:16:30.841Z,18.26
2023-05-19T08:17:32.580Z,17.98
2023-05-19T08:18:34.242Z,18.18
2023-05-19T08:19:35.790Z,18.30
2023-05-19T08:20:37.607Z,18.39
2023-05-19T08:21:39.155Z,18.24
2023-05-19T08:22:40.905Z,18.29
2023-05-19T08:23:42.459Z,18.25
2023-05-19T08:24:44.784Z,17.68
2023-05-19T08:25:46.400Z,18.10
2023-05-19T08:26:47.951Z,18.04
2023-05-19T08:27:49.500Z,17.95
2023-05-19T08:28:51.138Z,18.12
2023-05-19T08:29:52.706Z,18.18
2023-05-19T08:30:54.420Z,17.82
2023-05-19T08:31:56.232Z,17.46
2023-05-19T08:32:58.141Z,17.57
2023-05-19T08:33:59.856Z,17.70
2023-05-19T08:35:01.513Z,17.42
2023-05-19T08:36:03.174Z,17.06
2023-05-19T08:37:04.967Z,17.54
2023-05-19T08:38:06.818Z,17.69
2023-05-19T08:39:08.564Z,17.85
2023-05-19T08:40:12.169Z,18.05
2023-05-19T08:41:13.699Z,18.08
2023-05-19T08:42:15.425Z,18.05
2023-05-19T08:43:17.000Z,18.00
2023-05-19T08:44:19.149Z,18.06
2023-05-19T08:45:20.929Z,17.94
2023-05-19T08:46:22.894Z,17.96
2023-05-19T08:47:24.450Z,18.03
2023-05-19T08:48:26.029Z,17.95
2023-05-19T08:49:28.459Z,17.68
2023-05-19T08:50:31.157Z,17.64
2023-05-19T08:51:48.494Z,17.78
2023-05-19T08:53:01.696Z,17.74
2023-05-19T08:54:09.394Z,17.79
2023-05-19T08:55:21.767Z,17.10
2023-05-19T08:56:24.246Z,17.22
2023-05-19T08:57:25.841Z,17.66
2023-05-19T08:58:28.797Z,17.91
2023-05-19T08:59:30.773Z,17.45
2023-05-19T09:00:33.022Z,17.68
2023-05-19T09:02:36.969Z,17.94
2023-05-19T09:03:39.311Z,17.88
2023-05-19T09:04:41.025Z,17.81
2023-05-19T09:05:42.995Z,17.85
2023-05-19T09:06:45.320Z,17.98
2023-05-19T09:07:48.264Z,18.13
2023-05-19T09:08:49.679Z,18.48
2023-05-19T09:09:51.273Z,18.40
2023-05-19T09:10:52.919Z,18.19
2023-05-19T09:11:54.542Z,18.25
2023-05-19T09:12:56.163Z,18.15
2023-05-19T09:13:57.715Z,18.20
2023-05-19T09:14:59.370Z,18.27
2023-05-19T09:16:02.050Z,18.25
2023-05-19T09:17:04.199Z,18.32
2023-05-19T09:18:12.749Z,18.26
2023-05-19T09:19:17.252Z,18.21
2023-05-19T09:20:18.925Z,18.20
2023-05-19T09:21:20.486Z,18.04
2023-05-19T09:22:22.293Z,17.81
2023-05-19T09:23:24.996Z,17.49
2023-05-19T09:24:26.936Z,17.66
2023-05-19T09:25:28.841Z,17.97
2023-05-19T09:26:40.467Z,18.13
2023-05-19T09:27:42.089Z,18.01
2023-05-19T09:28:44.343Z,17.63
2023-05-19T09:29:45.915Z,17.44
2023-05-19T09:30:47.832Z,17.26
2023-05-19T09:31:50.802Z,16.79
2023-05-19T09:32:52.465Z,17.12
2023-05-19T09:33:54.030Z,17.34
2023-05-19T09:34:55.863Z,17.66
2023-05-19T09:35:57.856Z,17.93
2023-05-19T09:36:59.955Z,18.23
2023-05-19T09:38:01.555Z,18.16
2023-05-19T09:39:03.122Z,17.53
2023-05-19T09:40:05.570Z,17.66
2023-05-19T09:41:07.946Z,17.87
2023-05-19T09:42:09.501Z,17.44
2023-05-19T09:43:11.105Z,17.50
2023-05-19T09:44:21.362Z,17.93
2023-05-19T09:45:23.074Z,18.36
2023-05-19T09:46:28.368Z,18.38
2023-05-19T09:47:40.337Z,18.05
2023-05-19T09:48:42.500Z,18.40
2023-05-19T09:49:47.684Z,18.54
2023-05-19T09:50:51.624Z,18.50
2023-05-19T09:51:56.812Z,18.41
2023-05-19T09:52:58.569Z,18.33
2023-05-19T09:54:00.182Z,18.30
2023-05-19T09:55:04.183Z,18.35
2023-05-19T09:56:06.455Z,18.49
2023-05-19T09:57:08.990Z,18.35
2023-05-19T09:58:12.624Z,18.35
2023-05-19T09:59:15.411Z,18.54
2023-05-19T10:00:17.892Z,18.69
2023-05-19T10:01:19.952Z,18.71
2023-05-19T10:02:22.069Z,18.77
2023-05-19T10:03:24.104Z,18.53
2023-05-19T10:04:27.100Z,18.42
2023-05-19T10:05:28.859Z,18.41
2023-05-19T10:06:30.843Z,18.41
2023-05-19T10:07:32.380Z,18.46
2023-05-19T10:08:35.885Z,18.47
2023-05-19T10:09:37.519Z,18.46
2023-05-19T10:10:39.157Z,18.53
2023-05-19T10:11:41.323Z,18.63
2023-05-19T10:12:42.908Z,18.61
2023-05-19T10:13:45.566Z,18.54
2023-05-19T10:14:47.141Z,18.47
2023-05-19T10:15:58.254Z,18.57
2023-05-19T10:17:02.066Z,18.81
2023-05-19T10:18:03.748Z,18.85
2023-05-19T10:19:05.681Z,18.94
2023-05-19T10:20:17.109Z,19.10
2023-05-19T10:21:18.777Z,19.31
2023-05-19T10:22:20.530Z,19.26
2023-05-19T10:23:22.532Z,19.30
2023-05-19T10:24:24.383Z,19.43
2023-05-19T10:25:26.591Z,19.50
2023-05-19T10:26:28.227Z,19.57
2023-05-19T10:27:35.679Z,19.64
2023-05-19T10:28:39.161Z,19.68
2023-05-19T10:29:43.007Z,19.26
2023-05-19T10:30:48.965Z,19.19
2023-05-19T10:31:50.634Z,19.30
2023-05-19T10:32:52.565Z,19.21
2023-05-19T10:34:32.563Z,19.41
2023-05-19T10:35:59.737Z,19.47
2023-05-19T10:37:16.981Z,19.67
2023-05-19T10:38:28.375Z,19.61
2023-05-19T10:39:32.157Z,19.45
2023-05-19T10:40:35.920Z,19.40
2023-05-19T10:41:47.091Z,19.49
2023-05-19T10:43:20.818Z,19.58
2023-05-19T10:44:40.549Z,19.50
2023-05-19T10:45:48.003Z,19.63
2023-05-19T10:46:49.654Z,19.93
2023-05-19T10:47:51.940Z,20.03
2023-05-19T10:48:53.581Z,20.10
2023-05-19T10:49:55.871Z,20.30
2023-05-19T10:50:57.818Z,20.30
2023-05-19T10:51:59.337Z,20.36
2023-05-19T10:53:00.864Z,20.33
2023-05-19T10:54:03.132Z,20.24
2023-05-19T10:55:08.635Z,19.99
2023-05-19T10:56:10.379Z,20.06
2023-05-19T10:57:16.316Z,20.16
2023-05-19T10:58:39.693Z,20.29
2023-05-19T10:59:42.100Z,20.41
2023-05-19T11:00:43.672Z,20.32
2023-05-19T11:01:45.396Z,20.30
2023-05-19T11:02:47.554Z,20.32
2023-05-19T11:03:53.788Z,20.27
2023-05-19T11:04:58.450Z,20.41
2023-05-19T11:06:19.839Z,20.21
2023-05-19T11:07:22.305Z,20.28
2023-05-19T11:08:32.407Z,20.28
2023-05-19T11:09:40.045Z,20.39
2023-05-19T11:10:44.886Z,20.44
2023-05-19T11:11:52.856Z,20.47
2023-05-19T11:12:54.889Z,20.53
2023-05-19T11:13:56.640Z,20.59
2023-05-19T11:14:58.381Z,20.58
2023-05-19T11:16:01.202Z,20.64
2023-05-19T11:17:02.914Z,20.70
2023-05-19T11:18:04.804Z,20.65
2023-05-19T11:19:06.482Z,20.78
2023-05-19T11:20:11.008Z,20.47
2023-05-19T11:21:12.580Z,20.42
2023-05-19T11:22:14.292Z,20.41
2023-05-19T11:23:19.577Z,20.43
2023-05-19T11:24:33.913Z,19.78
2023-05-19T11:25:42.341Z,19.19
2023-05-19T11:26:44.285Z,19.37
2023-05-19T11:27:45.977Z,19.38
2023-05-19T11:28:47.807Z,19.41
2023-05-19T11:29:49.474Z,19.72
2023-05-19T11:30:51.862Z,19.93
2023-05-19T11:31:53.849Z,20.06
2023-05-19T11:32:55.713Z,20.17
2023-05-19T11:33:57.309Z,20.10
2023-05-19T11:34:58.930Z,20.28
2023-05-19T11:36:00.515Z,20.34
2023-05-19T11:37:02.127Z,20.38
2023-05-19T11:38:03.683Z,20.44
2023-05-19T11:39:06.015Z,20.56
2023-05-19T11:40:08.086Z,20.54
2023-05-19T11:41:09.686Z,20.49
2023-05-19T11:42:11.619Z,20.60
2023-05-19T11:43:13.404Z,20.65
2023-05-19T11:44:14.942Z,20.64
2023-05-19T11:45:16.510Z,20.70
2023-05-19T11:46:18.152Z,20.51
2023-05-19T11:47:20.586Z,20.28
2023-05-19T11:48:22.502Z,20.08
2023-05-19T11:49:24.352Z,19.86
2023-05-19T11:50:25.971Z,20.24
2023-05-19T11:51:27.489Z,20.42
2023-05-19T11:52:29.119Z,20.59
2023-05-19T11:53:33.239Z,20.76
2023-05-19T11:54:37.090Z,20.73
2023-05-19T11:55:48.400Z,20.74
2023-05-19T11:56:50.385Z,20.87
2023-05-19T11:58:05.006Z,20.92
2023-05-19T11:59:07.013Z,21.10
2023-05-19T12:00:09.213Z,21.18
2023-05-19T12:01:11.138Z,21.13
2023-05-19T12:02:14.075Z,21.18
2023-05-19T12:03:17.437Z,21.51
2023-05-19T12:04:19.341Z,21.66
2023-05-19T12:05:25.308Z,21.70
2023-05-19T12:06:27.567Z,21.80
2023-05-19T12:07:29.520Z,21.65
2023-05-19T12:08:31.109Z,21.80
2023-05-19T12:09:32.633Z,21.97
2023-05-19T12:10:34.331Z,22.25
2023-05-19T12:11:35.903Z,22.17
2023-05-19T12:12:37.495Z,22.22
2023-05-19T12:13:39.042Z,21.51
2023-05-19T12:14:40.623Z,21.61
2023-05-19T12:15:42.147Z,21.65
2023-05-19T12:16:46.719Z,21.61
2023-05-19T12:17:57.523Z,21.73
2023-05-19T12:20:19.450Z,21.63
2023-05-19T12:21:21.125Z,21.72
2023-05-19T12:22:22.716Z,21.71
2023-05-19T12:23:24.806Z,21.79
2023-05-19T12:24:26.333Z,21.70
2023-05-19T12:25:28.910Z,21.66
2023-05-19T12:26:30.531Z,21.63
2023-05-19T12:27:35.935Z,21.53
2023-05-19T12:28:37.726Z,21.64
2023-05-19T12:29:39.850Z,21.66
2023-05-19T12:30:41.529Z,21.73
2023-05-19T12:31:43.117Z,21.70
2023-05-19T12:32:44.837Z,21.78
2023-05-19T12:33:48.795Z,21.68
2023-05-19T12:34:50.314Z,21.62
2023-05-19T12:35:51.908Z,21.71
2023-05-19T12:36:53.485Z,21.73
2023-05-19T12:37:55.104Z,21.70
2023-05-19T12:38:56.652Z,21.65
2023-05-19T12:39:58.386Z,21.63
2023-05-19T12:41:00.197Z,21.62
2023-05-19T12:42:05.499Z,21.59
2023-05-19T12:43:07.815Z,21.61
2023-05-19T12:44:15.527Z,21.58
2023-05-19T12:45:20.621Z,21.59
2023-05-19T12:46:22.875Z,21.53
2023-05-19T12:47:33.442Z,21.44
2023-05-19T12:48:35.108Z,21.24
2023-05-19T12:49:36.660Z,21.32
2023-05-19T12:50:38.289Z,21.63
2023-05-19T12:51:40.450Z,21.78
2023-05-19T12:52:42.579Z,21.94
2023-05-19T12:53:44.122Z,21.86
2023-05-19T12:54:46.313Z,21.94
2023-05-19T12:55:47.866Z,22.12
2023-05-19T12:56:51.379Z,22.32
2023-05-19T12:57:56.664Z,22.40
2023-05-19T12:59:00.625Z,22.53
2023-05-19T13:00:20.874Z,22.47
2023-05-19T13:01:22.702Z,22.34
2023-05-19T13:02:24.525Z,22.34
2023-05-19T13:03:26.389Z,22.37
2023-05-19T13:04:28.198Z,22.44
2023-05-19T13:05:31.152Z,22.57
2023-05-19T13:06:33.665Z,22.71
2023-05-19T13:07:35.682Z,22.85
2023-05-19T13:08:37.913Z,23.01
2023-05-19T13:09:39.451Z,23.19
2023-05-19T13:10:42.437Z,23.17
2023-05-19T13:11:44.317Z,22.82
2023-05-19T13:12:45.896Z,22.91
2023-05-19T13:13:47.523Z,22.81
2023-05-19T13:14:49.100Z,22.59
2023-05-19T13:15:50.685Z,22.62
2023-05-19T13:16:52.368Z,22.58
2023-05-19T13:17:54.540Z,22.57
2023-05-19T13:18:56.156Z,22.68
2023-05-19T13:19:57.807Z,22.77
2023-05-19T13:20:59.488Z,22.82
2023-05-19T13:22:01.360Z,22.81
2023-05-19T13:23:03.308Z,22.85
2023-05-19T13:24:05.330Z,22.91
2023-05-19T13:25:07.575Z,22.91
2023-05-19T13:26:09.139Z,22.99
2023-05-19T13:27:10.750Z,23.00
2023-05-19T13:28:12.391Z,22.96
2023-05-19T13:29:13.909Z,22.86
2023-05-19T13:30:16.204Z,22.78
2023-05-19T13:31:18.762Z,22.86
2023-05-19T13:32:20.524Z,22.37
2023-05-19T13:33:22.223Z,22.18
2023-05-19T13:34:23.894Z,22.24
2023-05-19T13:35:25.489Z,21.45